createdAt,value
2022-09-05T00:00:23.018Z,15.59
2022-09-05T00:02:55.743Z,15.72
2022-09-05T00:06:01.658Z,15.73
2022-09-05T00:08:52.646Z,15.50
2022-09-05T00:11:41.278Z,15.44
2022-09-05T00:14:35.262Z,15.68
2022-09-05T00:17:21.617Z,15.70
2022-09-05T00:24:22.268Z,15.81
2022-09-05T00:24:28.564Z,16.01
2022-09-05T00:25:54.005Z,15.69
2022-09-05T00:28:46.862Z,15.63
2022-09-05T00:31:53.538Z,15.63
2022-09-05T00:34:26.831Z,15.80
2022-09-05T00:37:10.708Z,15.59
2022-09-05T00:39:47.665Z,15.76
2022-09-05T00:42:21.365Z,15.76
2022-09-05T00:45:03.490Z,15.59
2022-09-05T00:47:41.185Z,16.08
2022-09-05T00:50:30.749Z,16.09
2022-09-05T00:53:13.553Z,15.79
2022-09-05T00:56:05.478Z,16.18
2022-09-05T00:58:50.359Z,15.85
2022-09-05T01:01:25.553Z,15.83
2022-09-05T01:04:01.587Z,15.73
2022-09-05T01:07:09.833Z,15.60
2022-09-05T01:09:45.359Z,15.73
2022-09-05T01:12:32.253Z,15.64
2022-09-05T01:15:32.356Z,15.51
2022-09-05T01:18:31.778Z,15.48
2022-09-05T01:21:19.850Z,15.41
2022-09-05T01:24:12.559Z,15.20
2022-09-05T01:26:57.186Z,15.41
2022-09-05T01:29:52.876Z,15.47
2022-09-05T01:32:28.566Z,15.46
2022-09-05T01:35:26.174Z,15.48
2022-09-05T01:38:03.057Z,15.46
2022-09-05T01:40:46.910Z,15.31
2022-09-05T01:43:42.472Z,15.32
2022-09-05T01:46:25.286Z,15.16
2022-09-05T01:48:56.398Z,15.07
2022-09-05T01:51:58.731Z,15.09
2022-09-05T01:54:56.853Z,15.03
2022-09-05T01:57:51.431Z,15.23
2022-09-05T02:00:34.206Z,15.23
2022-09-05T02:03:23.143Z,15.52
2022-09-05T02:06:21.349Z,15.42
2022-09-05T02:09:10.026Z,15.43
2022-09-05T02:11:51.390Z,15.42
2022-09-05T02:14:29.811Z,15.10
2022-09-05T02:17:27.401Z,14.91
2022-09-05T02:20:08.013Z,15.00
2022-09-05T02:22:43.787Z,14.90
2022-09-05T02:26:00.233Z,14.89
2022-09-05T02:28:10.734Z,14.79
2022-09-05T02:30:51.753Z,14.87
2022-09-05T02:33:46.857Z,14.63
2022-09-05T02:36:32.575Z,14.86
2022-09-05T02:44:33.856Z,14.62
2022-09-05T02:45:17.256Z,14.77
2022-09-05T02:45:30.536Z,14.75
2022-09-05T02:48:15.549Z,15.04
2022-09-05T02:53:06.555Z,15.09
2022-09-05T02:57:28.763Z,14.64
2022-09-05T02:57:36.179Z,15.13
2022-09-05T02:59:58.282Z,15.21
2022-09-05T03:02:43.442Z,15.10
2022-09-05T03:05:38.242Z,14.98
2022-09-05T03:08:14.961Z,15.24
2022-09-05T03:11:02.755Z,15.24
2022-09-05T03:14:07.139Z,15.37
2022-09-05T03:17:02.095Z,15.35
2022-09-05T03:19:46.229Z,15.35
2022-09-05T03:22:37.130Z,15.16
2022-09-05T03:25:16.346Z,15.08
2022-09-05T03:28:11.029Z,15.03
2022-09-05T03:30:57.125Z,15.27
2022-09-05T03:33:47.294Z,14.91
2022-09-05T03:36:32.421Z,14.98
2022-09-05T03:39:14.218Z,15.09
2022-09-05T03:42:17.880Z,14.97
2022-09-05T03:44:48.725Z,15.28
2022-09-05T03:47:36.615Z,15.34
2022-09-05T03:57:07.414Z,15.51
2022-09-05T03:57:17.964Z,15.55
2022-09-05T03:57:23.588Z,15.60
2022-09-05T04:00:07.369Z,15.62
2022-09-05T04:06:58.353Z,15.45
2022-09-05T04:08:17.419Z,14.78
2022-09-05T04:08:44.211Z,14.73
2022-09-05T04:11:14.338Z,15.10
2022-09-05T04:13:49.450Z,15.31
2022-09-05T04:16:25.197Z,15.16
2022-09-05T04:18:56.687Z,15.41
2022-09-05T04:21:34.918Z,15.65
2022-09-05T04:24:05.737Z,15.76
2022-09-05T04:26:41.489Z,15.78
2022-09-05T04:29:08.130Z,15.71
2022-09-05T04:31:45.738Z,15.54
2022-09-05T04:34:27.203Z,15.38
2022-09-05T04:37:10.574Z,15.31
2022-09-05T04:39:37.575Z,15.34
2022-09-05T04:42:27.090Z,15.57
2022-09-05T04:45:24.085Z,15.74
2022-09-05T04:47:55.318Z,15.76
2022-09-05T04:50:24.868Z,15.86
2022-09-05T04:52:57.590Z,15.86
2022-09-05T04:55:28.695Z,16.04
2022-09-05T04:58:00.886Z,15.82
2022-09-05T05:06:05.975Z,15.79
2022-09-05T05:06:09.429Z,15.80
2022-09-05T05:06:43.842Z,15.53
2022-09-05T05:09:24.270Z,15.71
2022-09-05T05:18:00.300Z,15.57
2022-09-05T05:18:11.477Z,15.56
2022-09-05T05:18:14.368Z,15.56
2022-09-05T05:20:58.363Z,15.50
2022-09-05T05:23:39.367Z,15.51
2022-09-05T05:26:20.723Z,15.43
2022-09-05T05:29:09.094Z,15.54
2022-09-05T05:31:58.249Z,15.65
2022-09-05T05:34:31.973Z,15.74
2022-09-05T05:37:05.306Z,16.19
2022-09-05T05:39:37.860Z,15.95
2022-09-05T05:42:20.258Z,15.99
2022-09-05T05:44:53.870Z,15.95
2022-09-05T05:47:31.244Z,15.94
2022-09-05T05:50:40.262Z,16.20
2022-09-05T05:53:43.606Z,16.26
2022-09-05T05:56:19.374Z,16.02
2022-09-05T05:59:11.151Z,16.05
2022-09-05T06:01:56.163Z,16.13
2022-09-05T06:04:54.619Z,15.94
2022-09-05T06:07:27.171Z,15.85
2022-09-05T06:14:52.657Z,16.14
2022-09-05T06:15:00.161Z,16.28
2022-09-05T06:17:11.181Z,16.20
2022-09-05T06:22:04.440Z,16.35
2022-09-05T06:22:54.873Z,16.60
2022-09-05T06:25:52.254Z,16.63
2022-09-05T06:28:36.883Z,16.09
2022-09-05T06:31:33.673Z,16.00
2022-09-05T06:34:12.962Z,16.46
2022-09-05T06:37:22.178Z,16.31
2022-09-05T06:39:48.841Z,16.67
2022-09-05T06:42:33.357Z,16.76
2022-09-05T06:45:29.676Z,16.88
2022-09-05T06:48:45.849Z,16.91
2022-09-05T06:51:32.611Z,16.98
2022-09-05T06:54:29.260Z,17.13
2022-09-05T06:57:43.913Z,17.15
2022-09-05T07:00:19.653Z,17.13
2022-09-05T07:02:59.668Z,17.25
2022-09-05T07:05:45.845Z,17.26
2022-09-05T07:08:29.864Z,17.52
2022-09-05T07:11:23.723Z,17.44
2022-09-05T07:13:58.258Z,17.22
2022-09-05T07:16:38.976Z,17.53
2022-09-05T07:19:26.602Z,17.74
2022-09-05T07:22:46.247Z,17.89
2022-09-05T07:25:18.399Z,18.43
2022-09-05T07:28:28.680Z,18.73
2022-09-05T07:31:00.791Z,18.83
2022-09-05T07:33:31.107Z,19.01
2022-09-05T07:36:08.984Z,19.06
2022-09-05T07:38:52.189Z,18.56
2022-09-05T07:41:43.104Z,18.87
2022-09-05T07:44:22.214Z,18.78
2022-09-05T07:46:56.185Z,18.79
2022-09-05T07:49:27.871Z,18.90
2022-09-05T07:56:56.830Z,19.00
2022-09-05T07:57:01.033Z,19.28
2022-09-05T07:57:52.103Z,19.58
2022-09-05T08:00:26.596Z,19.69
2022-09-05T08:02:59.592Z,19.85
2022-09-05T08:05:35.726Z,20.24
2022-09-05T08:08:08.620Z,20.33
2022-09-05T08:11:24.434Z,20.29
2022-09-05T08:13:40.548Z,20.50
2022-09-05T08:16:13.803Z,20.71
2022-09-05T08:19:09.845Z,20.83
2022-09-05T08:21:51.594Z,21.09
2022-09-05T08:24:33.074Z,21.08
2022-09-05T08:27:16.207Z,21.15
2022-09-05T08:30:26.502Z,21.49
2022-09-05T08:32:49.092Z,21.45
2022-09-05T08:35:42.853Z,21.52
2022-09-05T08:38:11.926Z,21.69
2022-09-05T08:40:46.843Z,21.68
2022-09-05T08:46:37.623Z,21.77
2022-09-05T08:46:47.584Z,21.98
2022-09-05T08:49:49.960Z,22.07
2022-09-05T08:52:40.303Z,21.88
2022-09-05T08:55:24.650Z,22.11
2022-09-05T08:57:57.079Z,22.20
2022-09-05T09:00:27.606Z,21.99
2022-09-05T09:03:11.715Z,22.04
2022-09-05T09:06:13.305Z,22.07
2022-09-05T09:08:56.767Z,22.29
2022-09-05T09:11:36.839Z,22.27
2022-09-05T09:14:31.830Z,22.62
2022-09-05T09:17:23.424Z,22.55
2022-09-05T09:20:09.881Z,22.51
2022-09-05T09:22:55.318Z,22.66
2022-09-05T09:25:59.203Z,22.73
2022-09-05T09:28:50.507Z,22.53
2022-09-05T09:31:45.463Z,22.81
2022-09-05T09:34:21.792Z,22.81
2022-09-05T09:37:11.115Z,22.84
2022-09-05T09:40:04.836Z,22.88
2022-09-05T09:43:07.272Z,23.05
2022-09-05T09:46:10.131Z,23.06
2022-09-05T09:49:09.577Z,23.23
2022-09-05T09:52:20.755Z,23.34
2022-09-05T09:55:25.287Z,23.47
2022-09-05T09:58:29.070Z,23.68
2022-09-05T10:01:35.175Z,23.68
2022-09-05T10:10:36.155Z,23.77
2022-09-05T10:10:48.193Z,23.52
2022-09-05T10:10:49.906Z,23.67
2022-09-05T10:13:20.284Z,23.74
2022-09-05T10:16:30.705Z,23.73
2022-09-05T10:20:08.056Z,23.88
2022-09-05T10:25:19.177Z,24.05
2022-09-05T10:28:07.909Z,24.15
2022-09-05T10:33:21.284Z,24.27
2022-09-05T10:35:12.935Z,24.49
2022-09-05T10:36:31.757Z,24.67
2022-09-05T10:39:15.018Z,24.51
2022-09-05T10:42:00.277Z,24.45
2022-09-05T10:44:41.367Z,24.49
2022-09-05T10:47:23.679Z,24.56
2022-09-05T10:50:16.287Z,24.64
2022-09-05T10:53:20.575Z,24.69
2022-09-05T10:56:22.677Z,24.78
2022-09-05T10:59:31.790Z,24.79
2022-09-05T11:02:25.903Z,25.01
2022-09-05T11:05:16.136Z,24.63
2022-09-05T11:08:02.000Z,25.12
2022-09-05T11:10:37.140Z,25.11
2022-09-05T11:13:11.962Z,25.22
2022-09-05T11:15:43.969Z,25.30
2022-09-05T11:18:30.373Z,25.28
2022-09-05T11:21:44.953Z,25.47
2022-09-05T11:24:14.894Z,25.19
2022-09-05T11:26:51.352Z,24.90
2022-09-05T11:29:41.330Z,25.15
2022-09-05T11:34:46.261Z,25.47
2022-09-05T11:40:10.065Z,25.95
2022-09-05T11:40:10.857Z,25.80
2022-09-05T11:41:44.742Z,25.59
2022-09-05T11:44:36.573Z,26.00
2022-09-05T11:47:26.571Z,25.61
2022-09-05T11:50:34.558Z,25.87
2022-09-05T11:53:04.050Z,25.83
2022-09-05T11:56:03.412Z,26.03
2022-09-05T11:58:48.755Z,25.87
2022-09-05T12:01:57.003Z,26.46
2022-09-05T12:04:46.506Z,26.67
2022-09-05T12:08:03.366Z,26.88
2022-09-05T12:10:46.246Z,26.44
2022-09-05T12:13:40.317Z,26.40
2022-09-05T12:16:18.873Z,26.71
2022-09-05T12:19:22.997Z,26.45
2022-09-05T12:21:57.570Z,26.30
2022-09-05T12:25:27.080Z,26.39
2022-09-05T12:28:24.155Z,26.49
2022-09-05T12:31:09.998Z,26.23
2022-09-05T12:36:02.409Z,26.10
2022-09-05T12:40:54.214Z,26.16
2022-09-05T12:41:34.767Z,26.25
2022-09-05T12:42:45.812Z,26.37
2022-09-05T12:45:50.178Z,26.48
2022-09-05T12:48:39.322Z,32.94
2022-09-05T12:51:46.847Z,33.95
2022-09-05T12:54:33.795Z,33.38
2022-09-05T13:02:37.914Z,34.18
2022-09-05T13:03:05.378Z,33.74
2022-09-05T13:03:27.821Z,34.85
2022-09-05T13:06:25.590Z,34.21
2022-09-05T13:09:03.606Z,36.92
2022-09-05T13:14:52.984Z,36.23
2022-09-05T13:15:03.096Z,36.70
2022-09-05T13:17:42.997Z,36.77
2022-09-05T13:20:36.648Z,34.65
2022-09-05T13:23:22.051Z,31.96
2022-09-05T13:26:23.840Z,32.26
2022-09-05T13:29:09.917Z,32.76
2022-09-05T13:37:58.703Z,34.52
2022-09-05T13:38:00.415Z,32.26
2022-09-05T13:38:12.828Z,35.65
2022-09-05T13:40:26.096Z,32.38
2022-09-05T13:43:12.813Z,32.10
2022-09-05T13:46:03.349Z,36.34
2022-09-05T13:51:51.039Z,33.43
2022-09-05T13:54:24.181Z,33.35
2022-09-05T13:57:31.716Z,34.22
2022-09-05T14:00:28.021Z,35.30
2022-09-05T14:03:40.809Z,35.81
2022-09-05T14:06:46.714Z,34.67
2022-09-05T14:09:57.831Z,36.42
2022-09-05T14:13:02.690Z,34.69
2022-09-05T14:15:38.634Z,34.01
2022-09-05T14:18:22.178Z,37.30
2022-09-05T14:21:16.493Z,38.53
2022-09-05T14:23:55.944Z,35.79
2022-09-05T14:26:31.673Z,34.73
2022-09-05T14:29:14.241Z,32.88
2022-09-05T14:37:36.765Z,33.32
2022-09-05T14:37:42.241Z,34.61
2022-09-05T14:38:09.717Z,35.07
2022-09-05T14:41:15.739Z,34.37
2022-09-05T14:44:05.357Z,35.16
2022-09-05T14:46:55.345Z,37.00
2022-09-05T14:49:54.423Z,37.35
2022-09-05T14:52:26.752Z,31.74
2022-09-05T15:02:45.269Z,36.79
2022-09-05T15:02:52.293Z,34.01
2022-09-05T15:06:35.436Z,36.15
2022-09-05T15:11:24.103Z,34.17
2022-09-05T15:12:27.883Z,33.36
2022-09-05T15:14:50.075Z,33.74
2022-09-05T15:17:24.535Z,35.50
2022-09-05T15:20:06.464Z,33.54
2022-09-05T15:22:41.655Z,33.15
2022-09-05T15:25:18.704Z,33.16
2022-09-05T15:27:47.029Z,34.29
2022-09-05T15:30:35.109Z,33.21
2022-09-05T15:33:25.381Z,33.27
2022-09-05T15:35:52.981Z,33.70
2022-09-05T15:38:22.667Z,33.23
2022-09-05T15:41:18.099Z,33.46
2022-09-05T15:44:13.650Z,34.64
2022-09-05T15:46:46.329Z,33.95
2022-09-05T15:49:32.625Z,33.26
2022-09-05T15:52:04.834Z,33.40
2022-09-05T15:55:10.874Z,34.02
2022-09-05T15:57:45.947Z,32.96
2022-09-05T16:00:51.622Z,32.86
2022-09-05T16:04:25.021Z,32.61
2022-09-05T16:10:28.409Z,33.42
2022-09-05T16:10:50.979Z,34.46
2022-09-05T16:12:17.728Z,34.88
2022-09-05T16:15:55.211Z,31.50
2022-09-05T16:23:19.047Z,30.71
2022-09-05T16:23:31.904Z,28.09
2022-09-05T16:24:04.116Z,26.42
2022-09-05T16:26:45.881Z,26.84
2022-09-05T16:29:28.093Z,27.10
2022-09-05T16:32:05.289Z,26.02
2022-09-05T16:35:07.143Z,25.93
2022-09-05T16:37:49.298Z,25.01
2022-09-05T16:40:25.094Z,24.67
2022-09-05T16:43:03.653Z,24.11
2022-09-05T16:45:44.639Z,24.22
2022-09-05T16:48:26.691Z,23.94
2022-09-05T16:51:16.393Z,23.69
2022-09-05T16:53:59.198Z,23.11
2022-09-05T16:56:46.267Z,22.96
2022-09-05T16:59:19.899Z,22.74
2022-09-05T17:02:06.454Z,22.73
2022-09-05T17:05:04.266Z,22.39
2022-09-05T17:07:42.529Z,22.37
2022-09-05T17:10:18.387Z,22.45
2022-09-05T17:12:45.604Z,22.45
2022-09-05T17:15:22.499Z,22.26
2022-09-05T17:18:20.516Z,22.05
2022-09-05T17:20:50.184Z,22.11
2022-09-05T17:28:56.034Z,22.12
2022-09-05T17:29:26.021Z,22.08
2022-09-05T17:29:40.096Z,22.03
2022-09-05T17:31:59.324Z,22.04
2022-09-05T17:34:39.293Z,21.92
2022-09-05T17:37:10.414Z,21.89
2022-09-05T17:39:45.390Z,21.87
2022-09-05T17:42:26.265Z,21.86
2022-09-05T17:45:17.744Z,21.83
2022-09-05T17:47:51.707Z,21.52
2022-09-05T17:50:32.980Z,21.58
2022-09-05T17:53:26.310Z,21.55
2022-09-05T17:55:54.528Z,21.54
2022-09-05T17:58:28.154Z,21.22
2022-09-05T18:01:16.073Z,21.29
2022-09-05T18:03:44.875Z,21.21
2022-09-05T18:06:14.371Z,21.20
2022-09-05T18:08:49.959Z,20.90
2022-09-05T18:11:25.308Z,20.85
2022-09-05T18:14:24.592Z,20.82
2022-09-05T18:17:35.904Z,20.60
2022-09-05T18:22:42.659Z,20.55
2022-09-05T18:25:30.564Z,20.45
2022-09-05T18:28:22.539Z,20.55
2022-09-05T18:30:49.660Z,20.51
2022-09-05T18:33:53.364Z,20.42
2022-09-05T18:36:25.493Z,20.55
2022-09-05T18:39:24.240Z,20.44
2022-09-05T18:42:26.003Z,20.52
2022-09-05T18:44:59.668Z,20.34
2022-09-05T18:47:34.129Z,20.20
2022-09-05T18:50:24.138Z,20.05
2022-09-05T18:53:09.533Z,20.12
2022-09-05T18:56:12.808Z,20.25
2022-09-05T18:59:10.346Z,19.97
2022-09-05T19:01:42.114Z,20.13
2022-09-05T19:04:39.509Z,20.03
2022-09-05T19:07:10.311Z,20.12
2022-09-05T19:09:39.562Z,19.91
2022-09-05T19:12:33.374Z,19.87
2022-09-05T19:15:08.316Z,20.03
2022-09-05T19:17:47.648Z,19.88
2022-09-05T19:20:32.680Z,19.88
2022-09-05T19:23:11.845Z,19.67
2022-09-05T19:25:44.732Z,19.64
2022-09-05T19:36:44.370Z,19.37
2022-09-05T19:36:51.929Z,19.45
2022-09-05T19:37:08.026Z,19.61
2022-09-05T19:44:59.253Z,19.37
2022-09-05T19:47:28.157Z,19.37
2022-09-05T19:47:56.151Z,19.31
2022-09-05T19:50:54.424Z,19.36
2022-09-05T19:53:21.730Z,19.12
2022-09-05T19:55:48.876Z,19.06
2022-09-05T19:58:20.783Z,18.92
2022-09-05T20:01:00.618Z,18.45
2022-09-05T20:03:28.142Z,18.49
2022-09-05T20:06:26.699Z,18.77
2022-09-05T20:09:21.474Z,18.62
2022-09-05T20:11:57.768Z,18.33
2022-09-05T20:14:30.352Z,18.48
2022-09-05T20:17:16.991Z,18.37
2022-09-05T20:19:44.806Z,18.45
2022-09-05T20:22:49.683Z,18.32
2022-09-05T20:25:37.100Z,18.25
2022-09-05T20:28:25.533Z,18.49
2022-09-05T20:30:59.768Z,18.23
2022-09-05T20:33:52.799Z,18.26
2022-09-05T20:41:58.864Z,17.97
2022-09-05T20:43:18.213Z,18.13
2022-09-05T20:43:32.632Z,18.31
2022-09-05T20:46:12.126Z,18.01
2022-09-05T20:54:06.089Z,18.10
2022-09-05T20:54:13.189Z,18.09
2022-09-05T20:54:41.946Z,17.80
2022-09-05T20:57:19.959Z,17.87
2022-09-05T20:59:47.301Z,17.74
2022-09-05T21:02:27.332Z,17.80
2022-09-05T21:05:20.871Z,17.79
2022-09-05T21:07:59.213Z,17.75
2022-09-05T21:10:55.421Z,17.85
2022-09-05T21:13:28.601Z,18.15
2022-09-05T21:15:56.230Z,17.68
2022-09-05T21:18:33.876Z,17.85
2022-09-05T21:21:25.712Z,17.65
2022-09-05T21:24:09.895Z,17.62
2022-09-05T21:26:43.835Z,17.77
2022-09-05T21:29:13.163Z,17.75
2022-09-05T21:32:10.833Z,18.16
2022-09-05T21:34:46.258Z,17.65
2022-09-05T21:37:15.303Z,17.76
2022-09-05T21:39:58.625Z,17.68
2022-09-05T21:45:50.535Z,17.34
2022-09-05T21:47:43.655Z,17.32
2022-09-05T21:48:08.719Z,17.42
2022-09-05T21:50:46.058Z,17.73
2022-09-05T21:56:13.689Z,17.49
2022-09-05T21:59:25.236Z,17.53
2022-09-05T21:59:30.398Z,17.27
2022-09-05T22:01:53.173Z,17.37
2022-09-05T22:04:21.054Z,17.31
2022-09-05T22:06:48.634Z,17.02
2022-09-05T22:09:21.058Z,16.95
2022-09-05T22:11:51.167Z,17.31
2022-09-05T22:14:27.549Z,17.26
2022-09-05T22:16:57.736Z,17.05
2022-09-05T22:19:37.435Z,16.94
2022-09-05T22:22:16.034Z,16.99
2022-09-05T22:25:04.467Z,17.23
2022-09-05T22:27:33.741Z,17.20
2022-09-05T22:30:02.915Z,17.20
2022-09-05T22:32:34.690Z,16.98
2022-09-05T22:35:26.815Z,16.96
2022-09-05T22:38:00.495Z,17.16
2022-09-05T22:40:31.325Z,16.99
2022-09-05T22:43:01.110Z,16.96
2022-09-05T22:45:29.231Z,16.86
2022-09-05T22:47:56.261Z,17.07
2022-09-05T22:50:24.052Z,16.95
2022-09-05T22:52:50.705Z,16.94
2022-09-05T22:55:18.010Z,16.70
2022-09-05T22:57:44.901Z,16.65
2022-09-05T23:00:11.959Z,16.84
2022-09-05T23:02:38.687Z,16.92
2022-09-05T23:05:06.836Z,16.86
2022-09-05T23:07:33.663Z,16.85
2022-09-05T23:10:00.244Z,16.84
2022-09-05T23:12:27.087Z,16.73
2022-09-05T23:14:54.035Z,16.88
2022-09-05T23:17:20.657Z,16.83
2022-09-05T23:19:47.550Z,16.92
2022-09-05T23:22:14.558Z,16.84
2022-09-05T23:24:41.146Z,16.89
2022-09-05T23:27:07.717Z,16.78
2022-09-05T23:29:34.426Z,16.64
2022-09-05T23:32:01.114Z,16.80
2022-09-05T23:34:28.716Z,16.74
2022-09-05T23:36:55.412Z,16.48
2022-09-05T23:39:21.993Z,16.34
2022-09-05T23:41:48.666Z,16.38
2022-09-05T23:44:15.382Z,16.34
2022-09-05T23:46:42.295Z,16.53
2022-09-05T23:49:09.029Z,16.44
2022-09-05T23:51:35.777Z,16.48
2022-09-05T23:54:02.498Z,16.47
2022-09-05T23:56:29.260Z,16.48
2022-09-05T23:58:55.963Z,16.61
